Time;durP1;ratioP1;P1;durP2;ratioP2;P2;SDS_P1;SDS_P2;PMS_P1;PMS_P2;Temp;Humidity;BMP_temperature;BMP_pressure;BME280_temperature;BME280_humidity;BME280_pressure;Samples;Min_cycle;Max_cycle;Signal;HPM_P1;HPM_P2
2023/03/08 00:00:25;;;;;;;1.13;1.00;;;3.40;99.90;;;;;;5074480;28;20213;-85
2023/03/08 00:02:52;;;;;;;0.87;0.87;;;3.50;99.90;;;;;;5073651;28;20193;-85
2023/03/08 00:05:18;;;;;;;1.50;1.40;;;3.50;99.90;;;;;;5073556;28;20216;-85
2023/03/08 00:07:44;;;;;;;1.00;1.00;;;3.40;99.90;;;;;;5073627;28;20174;-85
2023/03/08 00:10:11;;;;;;;0.90;0.90;;;3.50;99.90;;;;;;5073506;28;20217;-85
2023/03/08 00:12:36;;;;;;;1.20;0.90;;;3.40;99.90;;;;;;5075464;28;20177;-85
2023/03/08 00:15:02;;;;;;;1.00;1.00;;;3.50;99.90;;;;;;5073361;28;20203;-85
2023/03/08 00:17:27;;;;;;;5.13;2.50;;;3.50;99.90;;;;;;5073330;28;20272;-85
2023/03/08 00:19:53;;;;;;;10.33;4.50;;;3.40;99.90;;;;;;5074105;28;20212;-85
2023/03/08 00:22:19;;;;;;;6.83;3.30;;;3.30;99.90;;;;;;5073263;28;20183;-85
2023/03/08 00:24:44;;;;;;;5.70;3.10;;;3.30;99.90;;;;;;5073798;28;20197;-85
2023/03/08 00:27:10;;;;;;;7.83;3.77;;;3.30;99.90;;;;;;5073868;28;20181;-85
2023/03/08 00:29:35;;;;;;;4.87;2.30;;;3.20;99.90;;;;;;5073118;28;20209;-85
2023/03/08 00:32:01;;;;;;;2.57;1.70;;;3.20;99.90;;;;;;5073169;28;20256;-85
2023/03/08 00:34:26;;;;;;;1.40;1.30;;;3.20;99.90;;;;;;5074164;28;20182;-85
2023/03/08 00:36:52;;;;;;;1.33;1.23;;;3.20;99.90;;;;;;5073279;28;20205;-85
2023/03/08 00:39:18;;;;;;;1.13;1.13;;;3.10;99.90;;;;;;5072866;28;20205;-85
2023/03/08 00:41:43;;;;;;;1.50;1.40;;;2.80;99.90;;;;;;5074649;28;20185;-85
2023/03/08 00:44:09;;;;;;;1.30;1.20;;;2.80;99.90;;;;;;5073221;28;20196;-85
2023/03/08 00:46:35;;;;;;;1.07;1.07;;;2.80;99.90;;;;;;5073076;28;20213;-85
2023/03/08 00:49:00;;;;;;;1.60;1.50;;;2.90;99.90;;;;;;5072504;28;20181;-85
2023/03/08 00:51:26;;;;;;;1.43;1.03;;;3.00;99.90;;;;;;5073978;28;20182;-85
2023/03/08 00:53:52;;;;;;;1.40;1.30;;;3.00;99.90;;;;;;5072711;28;20181;-85
2023/03/08 00:56:17;;;;;;;1.90;1.40;;;3.00;99.90;;;;;;5073390;28;20215;-85
2023/03/08 00:58:43;;;;;;;1.57;1.47;;;3.10;99.90;;;;;;5072923;28;20181;-85
2023/03/08 01:01:14;;;;;;;1.40;1.30;;;3.10;99.90;;;;;;5072582;28;20185;-85
2023/03/08 01:03:39;;;;;;;1.40;1.40;;;3.20;99.90;;;;;;5073484;28;20174;-85
2023/03/08 01:06:08;;;;;;;1.50;1.40;;;3.10;99.90;;;;;;5072533;28;20208;-85
2023/03/08 01:08:34;;;;;;;1.63;1.53;;;3.00;99.90;;;;;;5072525;28;20220;-85
2023/03/08 01:11:00;;;;;;;2.30;1.90;;;3.10;99.90;;;;;;5072466;28;20189;-85
2023/03/08 01:13:31;;;;;;;3.23;2.00;;;3.10;99.90;;;;;;5072539;28;20177;-85
2023/03/08 01:15:57;;;;;;;2.10;1.90;;;3.00;99.90;;;;;;5072815;28;20272;-85
2023/03/08 01:18:22;;;;;;;2.07;1.97;;;3.00;99.90;;;;;;5072452;28;20215;-85
2023/03/08 01:20:56;;;;;;;1.90;1.80;;;3.10;99.90;;;;;;5072552;28;20209;-85
2023/03/08 01:26:44;;;;;;;2.00;1.90;;;3.10;99.90;;;;;;5073605;28;20192;-85
2023/03/08 01:29:09;;;;;;;2.20;2.10;;;3.10;99.90;;;;;;5072258;28;20174;-85
2023/03/08 01:31:35;;;;;;;2.20;2.10;;;3.20;99.90;;;;;;5072541;28;20182;-85
2023/03/08 01:34:00;;;;;;;2.37;2.20;;;3.20;99.90;;;;;;5072152;28;20215;-85
2023/03/08 01:36:27;;;;;;;2.90;2.50;;;3.20;99.90;;;;;;5073523;28;20197;-85
2023/03/08 01:38:53;;;;;;;2.53;2.33;;;3.10;99.90;;;;;;5072337;28;20212;-85
2023/03/08 01:41:25;;;;;;;2.33;2.23;;;3.10;99.90;;;;;;5072320;28;20189;-86
2023/03/08 01:43:51;;;;;;;2.63;2.53;;;3.10;99.90;;;;;;5072224;28;20205;-85
2023/03/08 01:46:29;;;;;;;4.47;2.60;;;3.00;99.90;;;;;;5072239;28;20193;-85
2023/03/08 01:49:04;;;;;;;2.90;2.70;;;3.00;99.90;;;;;;5072142;28;20181;-85
2023/03/08 01:52:07;;;;;;;2.80;2.60;;;2.90;99.90;;;;;;5072018;28;20283;-85
2023/03/08 01:54:45;;;;;;;3.00;2.80;;;3.00;99.90;;;;;;5058651;28;20276;-85
2023/03/08 01:57:17;;;;;;;2.87;2.67;;;3.10;99.90;;;;;;5072844;28;20184;-85
2023/03/08 01:59:45;;;;;;;3.30;3.00;;;3.10;99.90;;;;;;5072749;28;20233;-85
2023/03/08 05:48:20;;;;;;;7.80;7.00;;;3.10;99.90;;;;;;6114030;23;20282;31
2023/03/08 05:50:46;;;;;;;8.37;7.53;;;3.10;99.90;;;;;;4953391;29;20292;-85
2023/03/08 05:53:11;;;;;;;9.20;8.30;;;3.20;99.90;;;;;;4954443;29;20225;-85
2023/03/08 05:55:37;;;;;;;8.80;7.80;;;3.20;99.90;;;;;;4951875;29;20181;-85
2023/03/08 05:58:02;;;;;;;9.20;8.30;;;3.20;99.90;;;;;;4919923;29;20189;-85
2023/03/08 06:00:28;;;;;;;9.20;8.20;;;3.20;99.90;;;;;;4919337;29;20213;-85
2023/03/08 06:02:54;;;;;;;8.80;8.00;;;3.20;99.90;;;;;;4919626;29;20186;-84
2023/03/08 06:05:19;;;;;;;11.83;8.90;;;3.30;99.90;;;;;;4919395;29;20233;-84
2023/03/08 06:07:45;;;;;;;9.00;8.10;;;3.30;99.90;;;;;;4918863;29;20289;-84
2023/03/08 06:10:10;;;;;;;9.20;8.03;;;3.20;99.90;;;;;;4919811;29;20185;-84
2023/03/08 06:12:36;;;;;;;10.73;9.63;;;3.30;99.90;;;;;;4918906;29;20190;-84
2023/03/08 06:15:02;;;;;;;11.23;10.03;;;3.20;99.90;;;;;;4919058;29;20214;-85
2023/03/08 06:17:27;;;;;;;11.60;10.40;;;3.30;99.90;;;;;;4918735;29;20244;-84
2023/03/08 06:19:55;;;;;;;11.80;10.60;;;3.30;99.90;;;;;;4919852;29;20217;-85
2023/03/08 06:22:20;;;;;;;20.30;18.30;;;3.40;99.90;;;;;;4920015;29;20233;-85
2023/03/08 06:24:48;;;;;;;14.10;12.10;;;3.40;99.90;;;;;;4936114;29;20203;-85
2023/03/08 06:27:16;;;;;;;29.20;13.00;;;3.40;99.90;;;;;;4934684;29;20198;-84
2023/03/08 06:29:42;;;;;;;31.90;12.07;;;3.40;99.90;;;;;;4919705;29;20266;-84
2023/03/08 06:32:08;;;;;;;16.27;10.73;;;3.50;99.90;;;;;;4919190;29;20278;-84
2023/03/08 06:35:11;;;;;;;12.13;10.70;;;3.50;99.90;;;;;;4918719;29;20229;-84
2023/03/08 06:37:36;;;;;;;15.27;11.63;;;3.40;99.90;;;;;;4918695;29;20668;-85
2023/03/08 06:40:04;;;;;;;20.23;13.67;;;3.50;99.90;;;;;;4934421;29;20198;-84
2023/03/08 06:42:30;;;;;;;16.43;11.70;;;3.60;99.90;;;;;;4918978;29;20186;-84
2023/03/08 06:44:56;;;;;;;12.50;11.17;;;3.60;99.90;;;;;;4918654;29;20179;-84
2023/03/08 06:47:21;;;;;;;13.07;11.67;;;3.70;99.90;;;;;;4937452;29;20229;-84
2023/03/08 06:49:47;;;;;;;37.40;14.20;;;3.70;99.90;;;;;;4922211;29;20194;-85
2023/03/08 06:52:12;;;;;;;14.83;12.27;;;3.70;99.90;;;;;;4922043;29;20178;-84
2023/03/08 06:54:38;;;;;;;14.43;11.57;;;3.80;99.90;;;;;;4922319;29;20185;-84
2023/03/08 06:57:03;;;;;;;14.13;11.67;;;3.80;99.90;;;;;;4921889;29;20210;-85
2023/03/08 06:59:29;;;;;;;14.73;12.00;;;3.80;99.90;;;;;;4922656;29;20237;-86
2023/03/08 07:01:54;;;;;;;14.60;11.70;;;3.90;99.90;;;;;;4921943;29;20281;-85
2023/03/08 07:04:20;;;;;;;15.70;13.07;;;3.80;99.90;;;;;;4921997;29;20178;-84
2023/03/08 07:06:46;;;;;;;20.83;15.70;;;3.80;99.90;;;;;;4938765;29;20277;-86
2023/03/08 07:09:12;;;;;;;18.93;15.03;;;3.80;99.90;;;;;;4921783;29;20290;-85
2023/03/08 07:11:38;;;;;;;19.47;14.90;;;3.70;99.90;;;;;;4921827;29;20185;-85
2023/03/08 07:14:03;;;;;;;14.87;13.23;;;3.70;99.90;;;;;;4922009;29;20182;-85
2023/03/08 07:16:29;;;;;;;27.73;14.43;;;3.70;99.90;;;;;;4921584;29;20201;-85
2023/03/08 07:18:55;;;;;;;81.57;19.40;;;3.70;99.90;;;;;;4938728;29;20189;-85
2023/03/08 07:21:22;;;;;;;111.20;22.57;;;3.70;99.90;;;;;;4921567;29;20182;-83
2023/03/08 07:23:50;;;;;;;20.93;13.60;;;3.60;99.90;;;;;;4922348;29;20181;-83
2023/03/08 07:26:16;;;;;;;17.10;13.63;;;3.60;99.90;;;;;;4921459;29;20202;-83
2023/03/08 07:28:41;;;;;;;16.80;13.37;;;3.70;99.90;;;;;;4921865;29;20189;-83
2023/03/08 07:31:10;;;;;;;16.33;13.37;;;3.60;99.90;;;;;;4938692;29;20174;-83
2023/03/08 07:33:36;;;;;;;18.97;14.13;;;3.70;99.90;;;;;;4921664;29;20273;-83
2023/03/08 07:36:01;;;;;;;17.10;14.60;;;3.60;99.90;;;;;;4921777;29;20290;-83
2023/03/08 07:38:28;;;;;;;17.13;14.53;;;3.60;99.90;;;;;;4921228;29;20272;-83
2023/03/08 07:40:54;;;;;;;16.70;13.93;;;3.70;99.90;;;;;;4921087;29;20570;-83
2023/03/08 07:43:20;;;;;;;17.67;13.50;;;3.60;99.90;;;;;;4921209;29;20186;-83
2023/03/08 07:45:45;;;;;;;17.77;14.03;;;3.60;99.90;;;;;;4938352;29;20374;-83
2023/03/08 07:48:11;;;;;;;19.77;14.17;;;3.60;99.90;;;;;;4921380;29;20189;-83
2023/03/08 07:50:37;;;;;;;16.90;13.47;;;3.60;99.90;;;;;;4921490;29;20205;-83
2023/03/08 07:53:03;;;;;;;15.43;13.47;;;3.60;99.90;;;;;;4936873;29;20186;-82
2023/03/08 07:55:29;;;;;;;18.47;13.60;;;3.60;99.90;;;;;;4938197;29;20171;-82
2023/03/08 07:57:54;;;;;;;18.27;13.70;;;3.60;99.90;;;;;;4937051;29;20249;-83
2023/03/08 08:00:21;;;;;;;15.30;13.20;;;3.60;99.90;;;;;;4920928;29;20217;-83
2023/03/08 08:02:50;;;;;;;18.63;13.97;;;3.60;99.90;;;;;;4937669;29;20170;-82
2023/03/08 08:05:15;;;;;;;16.73;13.87;;;3.60;99.90;;;;;;4921157;29;20189;-82
2023/03/08 08:07:41;;;;;;;16.57;13.30;;;3.60;99.90;;;;;;4937042;29;20203;-82
2023/03/08 08:10:07;;;;;;;18.10;13.07;;;3.60;99.90;;;;;;4920748;29;20194;-82
2023/03/08 08:12:33;;;;;;;15.53;13.23;;;3.60;99.90;;;;;;4936463;29;20190;-82
2023/03/08 08:14:59;;;;;;;18.03;13.80;;;3.60;99.90;;;;;;4920702;29;20190;-82
2023/03/08 08:17:24;;;;;;;16.73;13.10;;;3.70;99.90;;;;;;4920608;29;20210;-83
2023/03/08 08:19:50;;;;;;;18.60;13.03;;;3.70;99.90;;;;;;4920614;29;20242;-82
2023/03/08 08:22:15;;;;;;;16.33;13.20;;;3.70;99.90;;;;;;4920440;29;20182;-82
2023/03/08 08:24:41;;;;;;;14.77;12.50;;;3.70;99.90;;;;;;4937704;29;20182;-82
2023/03/08 08:27:07;;;;;;;19.33;13.20;;;3.70;99.90;;;;;;4920307;29;20210;-83
2023/03/08 08:29:32;;;;;;;17.13;13.00;;;3.70;99.90;;;;;;4920629;29;20186;-82
2023/03/08 08:31:58;;;;;;;15.70;13.07;;;3.60;99.90;;;;;;4921080;29;20186;-82
2023/03/08 08:34:23;;;;;;;17.57;13.70;;;3.70;99.90;;;;;;4920262;29;20281;-82
2023/03/08 08:36:49;;;;;;;16.70;13.20;;;3.70;99.90;;;;;;4920258;29;20206;-82
2023/03/08 08:39:15;;;;;;;19.43;13.97;;;3.70;99.90;;;;;;4920123;29;20218;-82
2023/03/08 08:41:40;;;;;;;18.37;13.50;;;3.70;99.90;;;;;;4920242;29;20190;-82
2023/03/08 08:44:06;;;;;;;18.33;13.73;;;3.70;99.90;;;;;;4920214;29;20178;-82
2023/03/08 08:46:33;;;;;;;17.23;13.80;;;3.70;99.90;;;;;;4920389;29;20213;-82
2023/03/08 08:48:59;;;;;;;16.40;13.43;;;3.70;99.90;;;;;;4919997;29;20198;-82
2023/03/08 08:51:35;;;;;;;19.60;14.53;;;3.70;99.90;;;;;;4920022;29;20188;-82
2023/03/08 08:54:01;;;;;;;17.97;14.33;;;3.80;99.90;;;;;;4920115;29;20206;-82
2023/03/08 08:56:28;;;;;;;18.80;14.73;;;3.70;99.90;;;;;;4920028;29;20194;-82
2023/03/08 08:58:55;;;;;;;18.63;14.90;;;3.70;99.90;;;;;;4936939;29;20694;-82
2023/03/08 09:01:23;;;;;;;19.03;14.57;;;3.70;99.90;;;;;;4920414;29;20185;-84
2023/03/08 09:03:49;;;;;;;20.53;17.60;;;3.60;99.90;;;;;;4920551;29;20186;-84
2023/03/08 09:06:18;;;;;;;23.33;16.83;;;3.80;99.90;;;;;;4919756;29;20222;-83
2023/03/08 09:08:44;;;;;;;18.87;15.90;;;3.70;99.90;;;;;;4920079;29;20178;-83
2023/03/08 09:11:10;;;;;;;18.27;15.03;;;3.80;99.90;;;;;;4919625;29;20224;-82
2023/03/08 09:13:41;;;;;;;18.27;14.70;;;3.70;99.90;;;;;;4920534;29;20213;-82
2023/03/08 09:16:23;;;;;;;21.43;15.30;;;3.70;99.90;;;;;;4919708;29;20237;-83
2023/03/08 09:18:49;;;;;;;20.93;15.00;;;3.60;99.90;;;;;;4919619;29;20221;-83
2023/03/08 09:21:15;;;;;;;19.07;16.23;;;3.60;99.90;;;;;;4919776;29;20187;-82
2023/03/08 09:23:41;;;;;;;22.70;18.60;;;3.60;99.90;;;;;;4919514;29;20193;-84
2023/03/08 09:26:06;;;;;;;22.93;20.33;;;3.50;99.90;;;;;;4919373;29;20198;-83
2023/03/08 09:28:32;;;;;;;26.73;23.83;;;3.50;99.90;;;;;;4935453;29;20218;-82
2023/03/08 09:34:20;;;;;;;16.03;13.80;;;3.40;99.90;;;;;;4936352;29;20169;-82
2023/03/08 09:36:46;;;;;;;18.73;16.17;;;3.50;99.90;;;;;;4919827;29;20198;-82
2023/03/08 09:39:12;;;;;;;27.67;24.63;;;3.50;99.90;;;;;;4919410;29;20301;-82
2023/03/08 09:41:51;;;;;;;18.13;15.03;;;3.40;99.90;;;;;;4919955;29;20185;-82
2023/03/08 09:44:50;;;;;;;18.80;15.83;;;3.40;99.90;;;;;;4919464;29;20665;-83
2023/03/08 09:47:40;;;;;;;16.80;13.73;;;3.40;99.90;;;;;;4936482;29;20202;-82
2023/03/08 09:50:41;;;;;;;16.87;13.00;;;3.30;99.90;;;;;;4919603;29;20200;-82
2023/03/08 09:53:36;;;;;;;17.73;14.83;;;3.30;99.90;;;;;;4919231;29;20264;-83
2023/03/08 09:56:05;;;;;;;16.40;12.70;;;3.20;99.90;;;;;;4935572;29;20202;-83
2023/03/08 09:58:43;;;;;;;15.00;12.33;;;3.20;99.90;;;;;;4919248;29;20194;-81
2023/03/08 10:01:39;;;;;;;14.13;12.17;;;3.20;99.90;;;;;;4920082;29;20252;-81
2023/03/08 10:04:33;;;;;;;15.40;12.13;;;3.20;99.90;;;;;;4918877;29;20186;-82
2023/03/08 10:07:00;;;;;;;12.23;10.90;;;3.20;99.90;;;;;;4939914;29;20194;-83
2023/03/08 10:09:32;;;;;;;12.87;11.10;;;3.20;99.90;;;;;;4939963;29;20242;-82
2023/03/08 10:12:23;;;;;;;14.27;11.57;;;3.20;99.90;;;;;;4941511;29;20177;-82
2023/03/08 10:14:53;;;;;;;12.73;10.93;;;3.30;99.90;;;;;;4940941;29;20263;-84
2023/03/08 10:17:30;;;;;;;11.07;9.87;;;3.50;99.90;;;;;;4924531;29;20224;-83
2023/03/08 10:20:08;;;;;;;11.53;9.73;;;3.60;99.90;;;;;;4925351;29;20301;-82
2023/03/08 10:22:37;;;;;;;10.60;9.53;;;3.60;99.90;;;;;;4942439;29;20181;-82
2023/03/08 10:25:27;;;;;;;10.30;9.30;;;3.70;99.90;;;;;;4943187;29;20171;-81
2023/03/08 10:27:55;;;;;;;10.00;9.00;;;3.80;99.90;;;;;;4927297;29;20175;-82
2023/03/08 10:30:26;;;;;;;9.97;8.93;;;3.90;99.90;;;;;;4925984;29;20197;-82
2023/03/08 10:32:57;;;;;;;11.03;9.93;;;4.00;99.90;;;;;;4943367;29;20233;-83
2023/03/08 10:35:57;;;;;;;11.57;10.37;;;4.00;99.90;;;;;;4925120;29;20178;-83
2023/03/08 10:38:27;;;;;;;8.70;7.90;;;4.00;99.90;;;;;;4899573;29;20194;-83
2023/03/08 10:41:09;;;;;;;10.33;9.23;;;4.10;99.90;;;;;;4922160;29;20206;-83
2023/03/08 10:43:40;;;;;;;7.83;7.10;;;4.10;99.90;;;;;;4938841;29;20181;-84
2023/03/08 10:46:13;;;;;;;8.10;7.37;;;4.30;99.90;;;;;;4939609;29;20198;-82
2023/03/08 10:48:39;;;;;;;7.00;6.37;;;4.40;99.90;;;;;;4942044;29;20161;-82
2023/03/08 10:51:14;;;;;;;7.07;6.40;;;4.60;99.90;;;;;;4923910;29;20183;-84
2023/03/08 10:53:39;;;;;;;6.57;5.97;;;4.70;99.90;;;;;;4922956;29;20182;-83
2023/03/08 10:56:24;;;;;;;6.30;5.70;;;4.90;99.90;;;;;;4921959;29;20213;-83
2023/03/08 10:58:54;;;;;;;5.80;5.30;;;5.00;99.90;;;;;;4922255;29;20693;-83
2023/03/08 11:01:47;;;;;;;5.67;5.20;;;5.20;99.90;;;;;;4937852;29;20506;-83
2023/03/08 11:04:19;;;;;;;5.80;5.30;;;5.50;99.90;;;;;;4938319;29;20174;-84
2023/03/08 11:07:33;;;;;;;4.97;4.57;;;5.60;99.90;;;;;;4921787;29;20202;-84
2023/03/08 11:13:32;;;;;;;4.80;4.40;;;5.90;99.90;;;;;;4938799;29;20234;-83
2023/03/08 11:16:12;;;;;;;5.37;4.97;;;6.10;99.90;;;;;;4921630;29;20229;-83
2023/03/08 11:22:34;;;;;;;4.00;3.70;;;5.90;99.90;;;;;;4941400;29;20299;-83
2023/03/08 11:25:03;;;;;;;4.47;4.07;;;6.00;99.90;;;;;;4923144;29;20183;-84
2023/03/08 11:28:15;;;;;;;4.40;4.10;;;6.00;99.90;;;;;;4938661;29;20203;-83
2023/03/08 11:30:56;;;;;;;4.95;4.55;;;6.30;99.90;;;;;;4937333;29;20245;-84
2023/03/08 11:33:21;;;;;;;4.53;4.13;;;6.30;99.90;;;;;;4938561;29;20166;-83
2023/03/08 11:39:30;;;;;;;6.03;5.53;;;6.20;99.90;;;;;;4938740;29;20178;-83
2023/03/08 11:41:56;;;;;;;6.57;6.07;;;6.00;99.90;;;;;;4938222;29;20182;-84
2023/03/08 11:44:51;;;;;;;5.93;5.43;;;5.90;99.90;;;;;;4937783;29;20241;-83
2023/03/08 11:47:51;;;;;;;5.83;5.33;;;6.00;99.90;;;;;;4937171;29;20202;-83
2023/03/08 11:50:21;;;;;;;5.90;5.40;;;5.90;99.90;;;;;;4921229;29;20205;-84
2023/03/08 11:53:26;;;;;;;5.95;5.43;;;5.90;99.90;;;;;;4936839;29;20186;-84
2023/03/08 11:56:00;;;;;;;6.03;5.53;;;5.80;99.90;;;;;;4938275;29;20197;-83
2023/03/08 11:58:35;;;;;;;7.17;6.47;;;5.80;99.90;;;;;;4936852;29;20180;-83
2023/03/08 12:01:05;;;;;;;6.43;5.90;;;6.00;99.90;;;;;;4921734;29;20208;-84
2023/03/08 12:03:42;;;;;;;6.22;5.60;;;6.00;99.90;;;;;;4937061;29;20241;-84
2023/03/08 12:06:18;;;;;;;8.38;7.43;;;5.90;99.90;;;;;;4921257;29;20205;-84
2023/03/08 12:09:00;;;;;;;11.43;8.50;;;6.00;99.90;;;;;;4921740;29;20170;-83
2023/03/08 12:11:33;;;;;;;7.20;6.47;;;5.80;99.90;;;;;;4920975;29;20171;-83
2023/03/08 12:14:24;;;;;;;6.73;6.13;;;5.70;99.90;;;;;;4921328;29;20178;-84
2023/03/08 12:16:58;;;;;;;6.30;5.80;;;5.60;99.90;;;;;;4936408;29;20254;-84
2023/03/08 12:19:44;;;;;;;6.50;5.90;;;5.50;99.90;;;;;;4920456;29;20205;-84
2023/03/08 12:22:29;;;;;;;6.30;5.70;;;5.60;99.90;;;;;;4920426;29;20214;-83
2023/03/08 12:25:07;;;;;;;6.47;5.87;;;5.50;99.90;;;;;;4936473;29;20170;-84
2023/03/08 12:27:48;;;;;;;6.97;6.27;;;5.50;99.90;;;;;;4937027;29;20221;-83
2023/03/08 12:30:51;;;;;;;6.20;5.60;;;5.50;99.90;;;;;;4921499;29;20205;-83
2023/03/08 12:33:17;;;;;;;6.73;6.13;;;5.60;99.90;;;;;;4936659;29;20174;-84
2023/03/08 12:35:57;;;;;;;6.33;5.77;;;5.80;99.90;;;;;;4920624;29;20752;-83
2023/03/08 12:38:22;;;;;;;5.90;5.40;;;5.70;99.90;;;;;;4920787;29;20225;-81
2023/03/08 12:40:50;;;;;;;11.63;6.70;;;5.80;99.90;;;;;;4938198;29;20214;-81
2023/03/08 12:43:30;;;;;;;7.63;5.67;;;5.90;99.90;;;;;;4921324;29;20196;-83
2023/03/08 12:45:55;;;;;;;9.25;5.15;;;6.30;99.90;;;;;;4920152;29;20210;-82
2023/03/08 12:48:41;;;;;;;6.45;5.57;;;6.70;99.90;;;;;;4938396;29;20182;-82
2023/03/08 12:51:14;;;;;;;5.93;5.43;;;6.70;99.90;;;;;;4907456;29;20222;-82
2023/03/08 12:53:42;;;;;;;5.85;4.88;;;6.80;99.90;;;;;;4936616;29;20178;-82
2023/03/08 12:56:10;;;;;;;4.88;4.47;;;6.90;99.90;;;;;;4937696;29;20287;-82
2023/03/08 12:58:49;;;;;;;5.07;4.68;;;6.90;99.90;;;;;;4936775;29;20190;-82
2023/03/08 13:01:33;;;;;;;5.18;4.75;;;7.10;99.90;;;;;;4923325;29;20232;-82
2023/03/08 13:03:59;;;;;;;6.07;5.57;;;7.00;99.90;;;;;;4943155;29;20190;-85
2023/03/08 13:06:31;;;;;;;5.40;5.00;;;6.80;99.90;;;;;;4927067;29;20778;-85
2023/03/08 13:09:06;;;;;;;5.75;5.25;;;6.50;99.90;;;;;;4926727;29;20177;-83
2023/03/08 13:11:43;;;;;;;6.47;5.90;;;6.50;99.90;;;;;;4922453;29;20178;-82
2023/03/08 13:14:26;;;;;;;4.80;4.40;;;6.10;99.90;;;;;;4920395;29;20190;-83
2023/03/08 13:16:52;;;;;;;7.07;6.38;;;6.20;99.90;;;;;;4921224;29;20205;-82
2023/03/08 13:19:32;;;;;;;4.80;4.40;;;6.20;99.90;;;;;;4920668;29;20559;-82
2023/03/08 13:22:14;;;;;;;4.90;4.50;;;6.30;99.90;;;;;;4920702;29;20176;-82
2023/03/08 13:24:55;;;;;;;5.47;5.07;;;6.10;99.90;;;;;;4920795;29;20174;-83
2023/03/08 13:27:35;;;;;;;5.18;4.78;;;6.10;99.90;;;;;;4936452;29;20216;-82
2023/03/08 13:30:14;;;;;;;4.70;4.22;;;5.90;99.90;;;;;;4920558;29;20179;-82
2023/03/08 13:32:40;;;;;;;5.15;4.75;;;6.10;99.90;;;;;;4935519;29;20178;-84
2023/03/08 13:35:14;;;;;;;5.60;4.43;;;6.20;99.90;;;;;;4935514;29;20186;-84
2023/03/08 13:37:40;;;;;;;4.55;4.25;;;5.90;99.90;;;;;;4920072;29;20198;-84
2023/03/08 13:40:17;;;;;;;4.80;4.40;;;6.00;99.90;;;;;;4935645;29;20280;-83
2023/03/08 13:43:04;;;;;;;4.65;4.25;;;5.80;99.90;;;;;;4936870;29;20182;-83
2023/03/08 13:45:32;;;;;;;5.82;5.43;;;5.70;99.90;;;;;;4920663;29;20190;-83
2023/03/08 13:48:01;;;;;;;4.63;4.32;;;5.70;99.90;;;;;;4901448;29;20179;-83
2023/03/08 13:50:41;;;;;;;5.13;4.73;;;5.60;99.90;;;;;;4900848;29;20226;-83
2023/03/08 13:53:12;;;;;;;4.63;4.30;;;5.60;99.90;;;;;;4901134;29;20194;-84
2023/03/08 13:55:42;;;;;;;5.03;4.63;;;5.70;99.90;;;;;;4901722;29;20595;-83
2023/03/08 13:58:27;;;;;;;5.32;4.93;;;5.50;99.90;;;;;;4904905;29;20630;-84
2023/03/08 14:01:23;;;;;;;4.72;4.40;;;5.40;99.90;;;;;;4904800;29;20206;-84
2023/03/08 14:03:53;;;;;;;4.97;4.60;;;5.40;99.90;;;;;;4920257;29;20195;-84
2023/03/08 14:06:28;;;;;;;4.78;4.40;;;5.40;99.90;;;;;;4904268;29;20198;-84
2023/03/08 14:08:58;;;;;;;5.20;4.70;;;5.50;99.90;;;;;;4903934;29;20634;-84
2023/03/08 14:11:29;;;;;;;4.47;4.18;;;5.40;99.90;;;;;;4903971;29;20195;-84
2023/03/08 14:13:57;;;;;;;4.80;4.40;;;5.50;99.90;;;;;;4904192;29;20277;-84
2023/03/08 14:16:33;;;;;;;5.35;4.90;;;5.40;99.90;;;;;;4904006;29;20237;-84
2023/03/08 14:22:22;;;;;;;4.78;4.47;;;5.60;99.90;;;;;;4920766;29;20222;-84
2023/03/08 14:24:54;;;;;;;5.60;4.80;;;5.50;99.90;;;;;;4904526;29;20266;-84
2023/03/08 14:27:19;;;;;;;4.47;4.15;;;5.40;99.90;;;;;;4903643;29;20195;-84
2023/03/08 14:29:46;;;;;;;5.20;4.80;;;5.40;99.90;;;;;;4919198;29;20186;-84
2023/03/08 14:32:11;;;;;;;4.95;4.55;;;5.50;99.90;;;;;;4904343;29;20187;-85
2023/03/08 14:34:46;;;;;;;5.33;4.93;;;5.60;99.90;;;;;;4920754;29;20194;-85
2023/03/08 14:37:29;;;;;;;6.10;5.60;;;5.60;99.90;;;;;;4920736;29;20206;-84
2023/03/08 14:40:34;;;;;;;7.75;6.88;;;5.60;99.90;;;;;;4903861;29;20249;-84
2023/03/08 14:43:05;;;;;;;5.10;4.70;;;5.50;99.90;;;;;;4899873;29;20197;-84
2023/03/08 14:45:48;;;;;;;4.63;4.30;;;5.50;99.90;;;;;;4904005;29;20179;-84
2023/03/08 14:48:17;;;;;;;5.53;5.13;;;5.60;99.90;;;;;;4903976;29;20305;-85
2023/03/08 14:50:53;;;;;;;4.70;4.30;;;5.50;99.90;;;;;;4919116;29;20202;-84
2023/03/08 14:53:28;;;;;;;4.32;4.03;;;5.40;99.90;;;;;;4903238;29;20193;-84
2023/03/08 14:55:54;;;;;;;4.47;4.18;;;5.40;99.90;;;;;;4919272;29;20221;-84
2023/03/08 14:58:24;;;;;;;4.53;4.22;;;5.30;99.90;;;;;;4903057;29;20198;-84
2023/03/08 15:00:55;;;;;;;4.50;4.20;;;5.00;99.90;;;;;;4903754;29;20235;-84
2023/03/08 15:03:20;;;;;;;5.10;4.70;;;4.90;99.90;;;;;;4903820;29;20194;-83
2023/03/08 15:06:04;;;;;;;4.73;4.33;;;4.80;99.90;;;;;;4919297;29;20666;-83
2023/03/08 15:08:29;;;;;;;4.87;4.47;;;4.90;99.90;;;;;;4903002;29;20198;-83
2023/03/08 15:10:55;;;;;;;6.80;6.20;;;5.00;99.90;;;;;;4903144;29;20725;-82
2023/03/08 15:13:35;;;;;;;9.20;8.27;;;5.10;99.90;;;;;;4903300;29;20233;-83
2023/03/08 15:16:00;;;;;;;6.57;5.97;;;5.00;99.90;;;;;;4903346;29;20207;-84
2023/03/08 15:18:27;;;;;;;5.70;5.20;;;4.90;99.90;;;;;;4903330;29;20243;-84
2023/03/08 15:20:53;;;;;;;6.33;5.83;;;4.70;99.90;;;;;;4903526;29;20211;-84
2023/03/08 15:23:53;;;;;;;5.93;5.40;;;4.80;99.90;;;;;;4902692;29;20526;-84
2023/03/08 15:26:25;;;;;;;5.57;5.03;;;4.80;99.90;;;;;;4919233;29;20198;-84
2023/03/08 15:28:50;;;;;;;8.37;7.70;;;4.90;99.90;;;;;;4902748;29;20179;-84
2023/03/08 15:31:25;;;;;;;7.97;7.17;;;4.90;99.90;;;;;;4902749;29;20187;-84
2023/03/08 15:33:51;;;;;;;7.00;5.90;;;4.80;99.90;;;;;;4902917;29;20182;-84
2023/03/08 15:36:40;;;;;;;6.10;5.57;;;4.90;99.90;;;;;;4902726;29;20551;-84
2023/03/08 15:39:06;;;;;;;6.32;5.82;;;4.90;99.90;;;;;;4902450;29;20179;-83
2023/03/08 15:41:31;;;;;;;5.70;5.20;;;5.00;99.90;;;;;;4919478;29;20175;-84
2023/03/08 15:43:57;;;;;;;6.53;5.93;;;5.00;99.90;;;;;;4902548;29;20221;-84
2023/03/08 15:46:23;;;;;;;6.95;6.40;;;4.90;99.90;;;;;;4902312;29;20202;-84
2023/03/08 15:48:49;;;;;;;6.38;5.78;;;4.90;99.90;;;;;;4902185;29;20235;-84
2023/03/08 15:51:45;;;;;;;6.15;5.65;;;4.90;99.90;;;;;;4903007;29;20282;-83
2023/03/08 15:54:23;;;;;;;6.82;6.18;;;5.00;99.90;;;;;;4903146;29;20802;-84
2023/03/08 15:57:00;;;;;;;6.47;5.97;;;5.00;99.90;;;;;;4902655;29;20202;-84
2023/03/08 15:59:36;;;;;;;6.00;5.50;;;4.80;99.90;;;;;;4902491;29;20241;-83
2023/03/08 16:02:35;;;;;;;7.70;6.50;;;4.90;99.90;;;;;;4902555;29;20186;-83
2023/03/08 16:05:02;;;;;;;7.07;5.90;;;4.80;99.90;;;;;;4903119;29;20179;-81
2023/03/08 16:07:27;;;;;;;7.23;6.53;;;4.70;99.90;;;;;;4917692;29;20226;-82
2023/03/08 16:09:53;;;;;;;7.30;6.70;;;4.70;99.90;;;;;;4902974;29;20540;-83
2023/03/08 16:12:38;;;;;;;7.57;6.87;;;4.60;99.90;;;;;;4901694;29;20264;-83
2023/03/08 16:15:04;;;;;;;5.90;5.40;;;4.60;99.90;;;;;;4901758;29;20214;-83
2023/03/08 16:17:31;;;;;;;6.60;5.90;;;4.60;99.90;;;;;;4901617;29;20209;-83
2023/03/08 16:19:56;;;;;;;7.33;6.73;;;4.70;99.90;;;;;;4917877;29;20215;-83
2023/03/08 16:22:23;;;;;;;7.33;6.70;;;4.70;99.90;;;;;;4901873;29;20273;-83
2023/03/08 16:24:48;;;;;;;8.20;7.40;;;4.60;99.90;;;;;;4902210;29;20202;-83
2023/03/08 16:27:21;;;;;;;11.33;9.63;;;4.30;99.90;;;;;;4901698;29;20222;-83
2023/03/08 16:29:52;;;;;;;18.20;14.70;;;4.30;99.90;;;;;;4901600;29;20179;-83
2023/03/08 16:32:18;;;;;;;16.90;14.27;;;4.50;99.90;;;;;;4902388;29;20334;-83
2023/03/08 16:34:49;;;;;;;57.13;37.30;;;4.50;99.90;;;;;;4917782;29;20226;-83
2023/03/08 16:37:19;;;;;;;51.40;31.33;;;4.50;99.90;;;;;;4901425;29;20254;-83
2023/03/08 16:39:45;;;;;;;44.73;29.43;;;4.10;99.90;;;;;;4901389;29;20210;-82
2023/03/08 16:42:32;;;;;;;56.90;38.00;;;4.10;99.90;;;;;;4901413;29;20179;-83
2023/03/08 16:44:58;;;;;;;111.83;66.33;;;4.10;99.90;;;;;;4918420;29;20191;-83
2023/03/08 16:47:25;;;;;;;58.80;39.27;;;4.20;99.90;;;;;;4902281;29;20198;-83
2023/03/08 16:49:51;;;;;;;38.77;28.00;;;4.20;99.90;;;;;;4901521;29;20198;-84
2023/03/08 16:52:26;;;;;;;22.97;20.17;;;4.30;99.90;;;;;;4901678;29;20186;-83
2023/03/08 16:55:39;;;;;;;10.30;9.30;;;4.10;99.90;;;;;;4901089;29;20178;-85
2023/03/08 16:58:06;;;;;;;12.10;10.87;;;4.20;99.90;;;;;;4917765;29;20210;-84
2023/03/08 17:00:31;;;;;;;15.63;13.77;;;4.10;99.90;;;;;;4901218;29;20294;-83
2023/03/08 17:03:31;;;;;;;14.40;12.90;;;4.10;99.90;;;;;;4902063;29;20234;-83
